Time;durP1;ratioP1;P1;durP2;ratioP2;P2;SDS_P1;SDS_P2;PMS_P1;PMS_P2;Temp;Humidity;BMP_temperature;BMP_pressure;BME280_temperature;BME280_humidity;BME280_pressure;Samples;Min_cycle;Max_cycle;Signal;HPM_P1;HPM_P2
2023/09/24 00:00:14;;;;;;;1999.90;999.90;;;;;;;12.28;100.00;95806.56;5063942;28;20197;-45
2023/09/24 00:02:40;;;;;;;1999.90;999.90;;;;;;;12.29;100.00;95803.44;5064326;28;20454;-51
2023/09/24 00:05:08;;;;;;;1999.90;999.90;;;;;;;12.29;100.00;95808.91;5063889;28;20209;-46
2023/09/24 00:07:34;;;;;;;1999.90;999.90;;;;;;;12.29;100.00;95802.63;5063790;28;20252;-45
2023/09/24 00:10:00;;;;;;;1999.90;999.90;;;;;;;12.23;100.00;95809.72;5063703;28;20194;-47
2023/09/24 00:12:27;;;;;;;1999.90;999.90;;;;;;;12.28;100.00;95812.03;5064484;28;20189;-44
2023/09/24 00:14:52;;;;;;;1999.90;999.90;;;;;;;12.28;100.00;95812.03;5064180;28;20206;-45
2023/09/24 00:17:18;;;;;;;1999.90;999.90;;;;;;;12.28;100.00;95817.50;5063772;28;20169;-45
2023/09/24 00:19:43;;;;;;;1999.90;999.90;;;;;;;12.27;100.00;95821.41;5063681;28;20231;-44
2023/09/24 00:22:10;;;;;;;1999.90;999.90;;;;;;;12.26;100.00;95819.88;5063751;28;20173;-44
2023/09/24 00:24:35;;;;;;;1999.90;999.90;;;;;;;12.25;100.00;95823.78;5064353;28;20177;-45
2023/09/24 00:27:00;;;;;;;1999.90;999.90;;;;;;;12.22;100.00;95830.06;5063620;28;20166;-46
2023/09/24 00:29:25;;;;;;;1999.90;999.90;;;;;;;12.22;100.00;95832.81;5064071;28;20201;-44
2023/09/24 00:31:51;;;;;;;1999.90;999.90;;;;;;;12.19;100.00;95833.59;5064094;28;20170;-46
2023/09/24 00:34:17;;;;;;;1999.90;999.90;;;;;;;12.20;100.00;95843.41;5066998;28;20173;-48
2023/09/24 00:36:42;;;;;;;1999.90;999.90;;;;;;;12.18;100.00;95832.06;5068053;28;20219;-44
2023/09/24 00:39:07;;;;;;;1999.90;999.90;;;;;;;12.13;100.00;95829.75;5067911;28;20173;-46
2023/09/24 00:41:32;;;;;;;1999.90;999.90;;;;;;;12.10;100.00;95825.09;5068131;28;20169;-46
2023/09/24 00:43:58;;;;;;;1999.90;999.90;;;;;;;12.08;100.00;95825.47;5067571;28;20169;-45
2023/09/24 00:46:23;;;;;;;1999.90;999.90;;;;;;;12.08;100.00;95825.47;5067475;28;20174;-44
2023/09/24 00:48:51;;;;;;;1999.90;999.90;;;;;;;12.07;100.00;95817.66;5067811;28;20200;-44
2023/09/24 00:51:19;;;;;;;1999.90;999.90;;;;;;;12.05;100.00;95804.38;5067635;28;20199;-44
2023/09/24 00:53:46;;;;;;;1999.90;999.90;;;;;;;12.06;100.00;95807.91;5067202;28;20172;-46
2023/09/24 00:56:12;;;;;;;1999.90;999.90;;;;;;;12.08;100.00;95802.78;5067723;28;20169;-46
2023/09/24 00:58:39;;;;;;;1999.90;999.90;;;;;;;12.09;100.00;95796.16;5067140;28;20213;-47
2023/09/24 01:01:04;;;;;;;1999.90;999.90;;;;;;;12.12;100.00;95798.06;5067692;28;20169;-50
2023/09/24 01:03:30;;;;;;;1999.90;999.90;;;;;;;12.12;100.00;95789.84;5067367;28;20208;-45
2023/09/24 01:05:56;;;;;;;1999.90;999.90;;;;;;;12.14;100.00;95791.03;5067494;28;20212;-46
2023/09/24 01:08:23;;;;;;;1999.90;999.90;;;;;;;12.12;100.00;95798.06;5066877;28;20181;-44
2023/09/24 01:10:49;;;;;;;1999.90;999.90;;;;;;;12.11;100.00;95808.25;5066978;28;20180;-44
2023/09/24 01:13:19;;;;;;;1999.90;999.90;;;;;;;12.12;100.00;95814.50;5066840;28;20177;-43
2023/09/24 01:15:44;;;;;;;1999.90;999.90;;;;;;;12.10;100.00;95803.19;5066805;28;20244;-48
2023/09/24 01:18:10;;;;;;;1999.90;999.90;;;;;;;12.10;100.00;95808.66;5066888;28;20215;-48
2023/09/24 01:20:36;;;;;;;1999.90;999.90;;;;;;;12.09;100.00;95815.31;5066845;28;20181;-51
2023/09/24 01:23:03;;;;;;;1999.90;999.90;;;;;;;12.07;100.00;95823.16;5067221;28;20208;-51
2023/09/24 01:25:33;;;;;;;1999.90;999.90;;;;;;;12.08;100.00;95820.00;5066702;28;20191;-46
2023/09/24 01:27:59;;;;;;;1999.90;999.90;;;;;;;12.06;100.00;95810.66;5066645;28;20177;-46
2023/09/24 01:30:24;;;;;;;1999.90;999.90;;;;;;;12.05;100.00;95811.81;5066540;28;20283;-49
2023/09/24 01:32:50;;;;;;;1999.90;999.90;;;;;;;12.02;100.00;95818.09;5066584;28;20213;-47
2023/09/24 01:35:17;;;;;;;1999.90;999.90;;;;;;;12.00;100.00;95817.72;5066779;28;20188;-44
2023/09/24 01:37:42;;;;;;;1999.90;999.90;;;;;;;11.98;100.00;95817.34;5067119;28;20182;-44
2023/09/24 01:40:27;;;;;;;1999.90;999.90;;;;;;;11.95;100.00;95816.19;5066556;28;20195;-46
2023/09/24 01:42:57;;;;;;;1999.90;999.90;;;;;;;11.92;100.00;95816.22;5066944;28;20178;-45
2023/09/24 01:45:24;;;;;;;1999.90;999.90;;;;;;;11.85;100.00;95819.00;5066189;28;20180;-43
2023/09/24 01:47:49;;;;;;;1999.90;999.90;;;;;;;11.83;100.00;95824.06;5066290;28;20173;-43
2023/09/24 01:50:16;;;;;;;1999.90;999.90;;;;;;;11.80;100.00;95820.19;5066349;28;20204;-46
2023/09/24 01:52:42;;;;;;;1999.90;999.90;;;;;;;11.80;100.00;95830.38;5066124;28;20177;-45
2023/09/24 01:55:08;;;;;;;1999.90;999.90;;;;;;;11.78;100.00;95832.72;5066210;28;20181;-43
2023/09/24 01:57:33;;;;;;;1999.90;999.90;;;;;;;11.77;100.00;95823.72;5066091;28;20192;-45
2023/09/24 02:00:04;;;;;;;1999.90;999.90;;;;;;;11.76;100.00;95821.41;5066538;28;20181;-44
2023/09/24 02:02:33;;;;;;;1999.90;999.90;;;;;;;11.73;100.00;95819.47;5066808;28;20181;-44
2023/09/24 02:04:58;;;;;;;1999.90;999.90;;;;;;;11.70;100.00;95814.78;5065629;28;20247;-44
2023/09/24 02:07:24;;;;;;;1999.90;999.90;;;;;;;11.63;100.00;95820.28;5065913;28;20174;-45
2023/09/24 02:09:49;;;;;;;1999.90;999.90;;;;;;;11.56;100.00;95803.88;5066117;28;20197;-46
2023/09/24 02:12:15;;;;;;;1999.90;999.90;;;;;;;11.45;100.00;95797.69;5066342;28;20174;-44
2023/09/24 02:14:40;;;;;;;1999.90;999.90;;;;;;;11.38;100.00;95784.84;5065740;28;20176;-45
2023/09/24 02:17:06;;;;;;;1999.90;999.90;;;;;;;11.31;100.00;95781.34;5065711;28;20355;-45
2023/09/24 02:19:31;;;;;;;1999.90;999.90;;;;;;;11.26;100.00;95762.63;5065680;28;20169;-45
2023/09/24 02:21:56;;;;;;;1999.90;999.90;;;;;;;11.21;100.00;95757.56;5065597;28;20177;-44
2023/09/24 02:24:22;;;;;;;1999.90;999.90;;;;;;;11.17;100.00;95748.59;5066158;28;20177;-47
2023/09/24 02:26:47;;;;;;;1999.90;999.90;;;;;;;11.10;100.00;95733.03;5065503;28;20236;-45
2023/09/24 02:29:16;;;;;;;1999.90;999.90;;;;;;;11.07;100.00;95727.59;5065488;28;20249;-45
2023/09/24 02:31:41;;;;;;;1999.90;999.90;;;;;;;10.98;100.00;95710.84;5065380;28;20174;-48
2023/09/24 02:34:07;;;;;;;1999.90;999.90;;;;;;;10.91;100.00;95699.94;5066018;28;20195;-49
2023/09/24 02:36:32;;;;;;;1999.90;999.90;;;;;;;10.88;100.00;95681.59;5065341;28;20176;-46
2023/09/24 02:38:57;;;;;;;1999.90;999.90;;;;;;;10.85;100.00;95671.50;5065778;28;20204;-49
2023/09/24 02:41:23;;;;;;;1999.90;999.90;;;;;;;10.81;100.00;95660.56;5065243;28;20203;-49
2023/09/24 02:43:48;;;;;;;1999.90;999.90;;;;;;;10.78;100.00;95644.19;5065194;28;20177;-45
2023/09/24 02:46:15;;;;;;;1999.90;999.90;;;;;;;10.75;100.00;95629.41;5065188;28;20358;-45
2023/09/24 02:48:42;;;;;;;1999.90;999.90;;;;;;;10.72;100.00;95619.25;5065559;28;20246;-46
2023/09/24 02:51:11;;;;;;;1999.90;999.90;;;;;;;10.69;100.00;95609.13;5065656;28;20201;-46
2023/09/24 02:53:37;;;;;;;1999.90;999.90;;;;;;;10.65;100.00;95594.72;5065068;28;20173;-46
2023/09/24 02:56:04;;;;;;;1999.90;999.90;;;;;;;10.56;100.00;95588.13;5064244;28;20180;-46
2023/09/24 02:58:30;;;;;;;1999.90;999.90;;;;;;;10.52;100.00;95581.91;5065129;28;20191;-46
2023/09/24 03:00:56;;;;;;;1999.90;999.90;;;;;;;10.50;100.00;95573.31;5064831;28;20181;-49
2023/09/24 03:03:22;;;;;;;1999.90;999.90;;;;;;;10.46;100.00;95565.16;5064812;28;20467;-44
2023/09/24 03:05:48;;;;;;;1999.90;999.90;;;;;;;10.44;100.00;95561.25;5064937;28;20228;-44
2023/09/24 03:08:17;;;;;;;1999.90;999.90;;;;;;;10.43;100.00;95540.59;5065497;28;20176;-45
2023/09/24 03:10:43;;;;;;;1999.90;999.90;;;;;;;10.39;100.00;95532.44;5064635;28;20180;-44
2023/09/24 03:13:08;;;;;;;1999.90;999.90;;;;;;;10.39;100.00;95528.94;5064660;28;20172;-45
2023/09/24 03:15:34;;;;;;;1999.90;999.90;;;;;;;10.36;100.00;95519.59;5065158;28;20172;-47
2023/09/24 03:18:00;;;;;;;1999.90;999.90;;;;;;;10.31;100.00;95508.31;5064628;28;20173;-45
2023/09/24 03:20:26;;;;;;;1999.90;999.90;;;;;;;10.26;100.00;95508.75;5064495;28;20210;-45
2023/09/24 03:22:54;;;;;;;1999.90;999.90;;;;;;;10.21;100.00;95498.22;5065234;28;20199;-46
2023/09/24 03:25:25;;;;;;;1999.90;999.90;;;;;;;10.14;100.00;95502.53;5064360;28;20422;-44
2023/09/24 03:27:56;;;;;;;1999.90;999.90;;;;;;;10.17;100.00;95500.19;5064833;28;20172;-44
2023/09/24 03:30:22;;;;;;;1999.90;999.90;;;;;;;10.16;100.00;95482.28;5064371;28;20179;-46
2023/09/24 03:32:49;;;;;;;1999.90;999.90;;;;;;;10.13;100.00;95481.13;5064249;28;20233;-44
2023/09/24 03:35:19;;;;;;;1999.90;999.90;;;;;;;10.09;100.00;95472.16;5064246;28;20510;-46
2023/09/24 03:37:45;;;;;;;1999.90;999.90;;;;;;;10.06;100.00;95473.72;5064160;28;20176;-45
2023/09/24 03:40:14;;;;;;;1999.90;999.90;;;;;;;9.89;100.00;95463.66;5064035;28;20203;-44
2023/09/24 03:42:39;;;;;;;1999.90;999.90;;;;;;;9.80;100.00;95466.03;5064613;28;20203;-44
2023/09/24 03:45:08;;;;;;;1999.90;999.90;;;;;;;9.76;100.00;95446.19;5064115;28;20244;-45
2023/09/24 03:47:33;;;;;;;1999.90;999.90;;;;;;;9.98;100.00;95438.66;5064078;28;20179;-48
2023/09/24 03:49:59;;;;;;;1999.90;999.90;;;;;;;9.96;100.00;95443.75;5064486;28;20170;-44
2023/09/24 03:52:24;;;;;;;1999.90;999.90;;;;;;;9.94;100.00;95437.91;5063940;28;20178;-46
2023/09/24 03:54:50;;;;;;;1999.90;999.90;;;;;;;9.90;100.00;95437.94;5063975;28;20170;-47
2023/09/24 03:57:15;;;;;;;1999.90;999.90;;;;;;;9.88;100.00;95428.59;5064319;28;20191;-43
2023/09/24 03:59:41;;;;;;;1999.90;999.90;;;;;;;9.89;100.00;95424.69;5063701;28;20395;-45
2023/09/24 04:02:06;;;;;;;1999.90;999.90;;;;;;;9.86;100.00;95425.47;5063889;28;20242;-44
2023/09/24 04:04:35;;;;;;;1999.90;999.90;;;;;;;9.79;100.00;95415.41;5063558;28;20399;-44
2023/09/24 04:07:02;;;;;;;1999.90;999.90;;;;;;;9.79;100.00;95409.94;5064208;28;20502;-44
2023/09/24 04:09:32;;;;;;;1999.90;999.90;;;;;;;9.81;100.00;95407.56;5064339;28;20182;-45
2023/09/24 04:11:58;;;;;;;1999.90;999.90;;;;;;;9.78;100.00;95402.94;5064275;28;20189;-47
2023/09/24 04:14:23;;;;;;;1999.90;999.90;;;;;;;9.73;100.00;95410.75;5064321;28;20171;-45
2023/09/24 04:16:49;;;;;;;1999.90;999.90;;;;;;;9.67;100.00;95413.13;5064118;28;20178;-47
2023/09/24 04:19:16;;;;;;;1999.90;999.90;;;;;;;9.64;100.00;95413.91;5063860;28;20197;-44
2023/09/24 04:21:41;;;;;;;1999.90;999.90;;;;;;;9.60;100.00;95418.59;5063613;28;20174;-44
2023/09/24 04:24:06;;;;;;;1999.90;999.90;;;;;;;9.60;100.00;95407.69;5063698;28;20183;-44
2023/09/24 04:26:32;;;;;;;1999.90;999.90;;;;;;;9.58;100.00;95410.03;5063593;28;20177;-46
2023/09/24 04:28:57;;;;;;;1999.90;999.90;;;;;;;9.57;100.00;95411.22;5063603;28;20210;-45
2023/09/24 04:31:23;;;;;;;1999.90;999.90;;;;;;;9.52;100.00;95425.25;5063316;28;20170;-51
2023/09/24 04:33:48;;;;;;;1999.90;999.90;;;;;;;9.47;100.00;95422.91;5063744;28;20218;-50
2023/09/24 04:36:14;;;;;;;1999.90;999.90;;;;;;;9.44;100.00;95431.88;5063507;28;20199;-44
2023/09/24 04:38:41;;;;;;;1999.90;999.90;;;;;;;9.46;100.00;95417.88;5063422;28;20205;-44
2023/09/24 04:41:07;;;;;;;1999.90;999.90;;;;;;;9.45;100.00;95422.56;5063913;28;20177;-45
2023/09/24 04:43:35;;;;;;;1999.90;999.90;;;;;;;9.46;100.00;95423.31;5063483;28;20178;-45
2023/09/24 04:46:04;;;;;;;1999.90;999.90;;;;;;;9.41;100.00;95421.00;5063390;28;20210;-44
2023/09/24 04:48:31;;;;;;;1999.90;999.90;;;;;;;9.37;100.00;95426.44;5063959;28;20244;-48
2023/09/24 04:50:56;;;;;;;1999.90;999.90;;;;;;;9.34;100.00;95431.94;5063757;28;20217;-48
2023/09/24 04:53:22;;;;;;;1999.90;999.90;;;;;;;9.31;100.00;95438.94;5063375;28;20175;-46
2023/09/24 04:55:47;;;;;;;1999.90;999.90;;;;;;;9.31;100.00;95438.94;5063251;28;20179;-46
2023/09/24 04:58:12;;;;;;;1999.90;999.90;;;;;;;9.28;100.00;95434.28;5063374;28;20222;-49
2023/09/24 05:00:38;;;;;;;1999.90;999.90;;;;;;;9.26;100.00;95441.31;5062912;28;20198;-48
2023/09/24 05:03:04;;;;;;;1999.90;999.90;;;;;;;9.26;100.00;95436.59;5063223;28;20170;-47
2023/09/24 05:05:29;;;;;;;1999.90;999.90;;;;;;;9.22;100.00;95441.28;5063605;28;20261;-47
2023/09/24 05:07:54;;;;;;;1999.90;999.90;;;;;;;9.22;100.00;95451.44;5062840;28;20166;-46
2023/09/24 05:10:20;;;;;;;1999.90;999.90;;;;;;;9.20;100.00;95446.38;5062870;28;20177;-44
2023/09/24 05:12:45;;;;;;;1999.90;999.90;;;;;;;9.23;100.00;95451.03;5063226;28;20224;-46
2023/09/24 05:15:10;;;;;;;1999.90;999.90;;;;;;;9.27;100.00;95451.81;5063365;28;20166;-51
2023/09/24 05:17:36;;;;;;;1999.90;999.90;;;;;;;9.37;100.00;95459.16;5063339;28;20173;-51
2023/09/24 05:20:03;;;;;;;1999.90;999.90;;;;;;;9.59;100.00;95449.75;5064702;28;20201;-45
2023/09/24 05:22:28;;;;;;;1999.90;999.90;;;;;;;9.82;100.00;95446.53;5066784;28;20170;-44
2023/09/24 05:24:54;;;;;;;1999.90;999.90;;;;;;;10.08;100.00;95449.56;5067175;28;20234;-47
2023/09/24 05:27:19;;;;;;;1999.90;999.90;;;;;;;10.20;100.00;95467.41;5066966;28;20183;-45
2023/09/24 05:29:46;;;;;;;1999.90;999.90;;;;;;;10.55;100.00;95488.25;5066465;28;20176;-46
2023/09/24 05:32:12;;;;;;;1999.90;999.90;;;;;;;10.84;100.00;95522.38;5066577;28;20215;-50
2023/09/24 05:34:37;;;;;;;1999.90;999.90;;;;;;;10.99;100.00;95573.03;5066567;28;20177;-44
2023/09/24 05:37:03;;;;;;;1999.90;999.90;;;;;;;11.09;100.00;95626.84;5066418;28;20178;-45
2023/09/24 05:39:28;;;;;;;1999.90;999.90;;;;;;;11.16;100.00;95684.97;5066395;28;20244;-44
2023/09/24 05:41:54;;;;;;;1999.90;999.90;;;;;;;11.21;100.00;95746.63;5066686;28;20177;-45
2023/09/24 05:44:20;;;;;;;1999.90;999.90;;;;;;;11.31;100.00;95797.75;5066050;28;20174;-45
2023/09/24 05:46:45;;;;;;;1999.90;999.90;;;;;;;11.63;100.00;95842.19;5066228;28;20177;-45
2023/09/24 05:49:11;;;;;;;1999.90;999.90;;;;;;;11.93;100.00;95894.41;5066227;28;20245;-48
2023/09/24 05:51:36;;;;;;;1999.90;999.90;;;;;;;12.83;100.00;95936.06;5066221;28;20170;-45
2023/09/24 05:54:02;;;;;;;1999.90;999.90;;;;;;;13.24;100.00;96010.94;5066662;28;20198;-45
2023/09/24 05:56:27;;;;;;;1999.90;999.90;;;;;;;13.70;100.00;96077.19;5066070;28;20233;-45
2023/09/24 05:58:53;;;;;;;1999.90;999.90;;;;;;;14.16;100.00;96126.94;5065667;28;20208;-46
2023/09/24 06:01:19;;;;;;;1999.90;999.90;;;;;;;14.54;100.00;96157.97;5065940;28;20170;-44
2023/09/24 06:03:44;;;;;;;1999.90;999.90;;;;;;;14.89;100.00;96174.81;5065805;28;20166;-44
2023/09/24 06:06:10;;;;;;;1999.90;999.90;;;;;;;15.57;100.00;96192.03;5066449;28;20237;-44
2023/09/24 06:08:39;;;;;;;1999.90;999.90;;;;;;;16.11;100.00;96194.31;5066583;28;20166;-44
2023/09/24 06:11:05;;;;;;;1999.90;999.90;;;;;;;16.56;100.00;96202.22;5066213;28;20228;-44
2023/09/24 06:13:32;;;;;;;1999.90;999.90;;;;;;;17.12;100.00;96203.91;5066234;28;20165;-46
2023/09/24 06:16:02;;;;;;;1999.90;999.90;;;;;;;17.40;100.00;96208.81;5066435;28;20208;-48
2023/09/24 06:18:27;;;;;;;1999.90;999.90;;;;;;;17.94;100.00;96213.56;5065567;28;20177;-48
2023/09/24 06:20:53;;;;;;;1999.90;999.90;;;;;;;18.36;100.00;96217.31;5065294;28;20170;-50
2023/09/24 06:23:19;;;;;;;1999.90;999.90;;;;;;;18.49;100.00;96215.38;5066015;28;20177;-49
2023/09/24 06:25:44;;;;;;;1999.90;999.90;;;;;;;18.82;100.00;96222.41;5066064;28;20177;-49
2023/09/24 06:28:09;;;;;;;1999.90;999.90;;;;;;;18.99;100.00;96226.72;5065446;28;20208;-47
2023/09/24 06:30:36;;;;;;;1999.90;999.90;;;;;;;19.07;100.00;96225.28;5065121;28;20178;-47
2023/09/24 06:33:03;;;;;;;1999.90;999.90;;;;;;;19.65;100.00;96229.56;5065352;28;20174;-47
2023/09/24 06:35:28;;;;;;;1999.90;999.90;;;;;;;19.82;100.00;96239.38;5065905;28;20240;-47
2023/09/24 06:37:54;;;;;;;1999.90;999.90;;;;;;;20.19;100.00;96230.31;5065275;28;20177;-47
2023/09/24 06:40:19;;;;;;;1999.90;999.90;;;;;;;20.35;100.00;96232.16;5065115;28;20201;-48
2023/09/24 06:42:45;;;;;;;1999.90;999.90;;;;;;;20.49;100.00;96232.47;5065626;28;20177;-47
2023/09/24 06:45:11;;;;;;;1999.90;999.90;;;;;;;20.77;100.00;96242.63;5065197;28;20233;-51
2023/09/24 06:47:36;;;;;;;1999.90;999.90;;;;;;;20.84;100.00;96245.19;5065076;28;20170;-47
2023/09/24 06:50:02;;;;;;;1999.90;999.90;;;;;;;20.94;100.00;96246.81;5065071;28;20170;-46
2023/09/24 06:52:30;;;;;;;1999.90;999.90;;;;;;;21.20;100.00;96248.28;5065557;28;20170;-50
2023/09/24 06:54:56;;;;;;;1999.90;999.90;;;;;;;21.33;100.00;96249.00;5064893;28;20181;-47
2023/09/24 06:57:21;;;;;;;1999.90;999.90;;;;;;;21.63;100.00;96253.06;5064878;28;20198;-48
2023/09/24 06:59:46;;;;;;;1999.90;999.90;;;;;;;21.38;100.00;96253.97;5064814;28;20265;-47
2023/09/24 07:02:14;;;;;;;1999.90;999.90;;;;;;;21.32;100.00;96255.78;5064829;28;20170;-46
2023/09/24 07:04:39;;;;;;;1999.90;999.90;;;;;;;21.84;100.00;96253.06;5064617;28;20222;-46
2023/09/24 07:07:04;;;;;;;1999.90;999.90;;;;;;;22.09;100.00;96257.69;5064532;28;20166;-51
2023/09/24 07:09:30;;;;;;;1999.90;999.90;;;;;;;22.56;100.00;96262.97;5064733;28;20170;-50
2023/09/24 07:11:55;;;;;;;1999.90;999.90;;;;;;;22.60;100.00;96261.59;5065057;28;20177;-47
2023/09/24 07:14:20;;;;;;;1999.90;999.90;;;;;;;22.70;100.00;96267.97;5064344;28;20170;-47
2023/09/24 07:16:46;;;;;;;1999.90;999.90;;;;;;;22.50;100.00;96259.25;5064624;28;20170;-50
2023/09/24 07:19:11;;;;;;;1999.90;999.90;;;;;;;22.88;100.00;96268.78;5065184;28;20209;-47
2023/09/24 07:21:37;;;;;;;1999.90;999.90;;;;;;;23.36;100.00;96269.94;5065035;28;20192;-48
2023/09/24 07:24:04;;;;;;;1999.90;999.90;;;;;;;23.34;100.00;96272.44;5065025;28;20176;-46
2023/09/24 07:26:29;;;;;;;1999.90;999.90;;;;;;;23.66;100.00;96274.56;5064860;28;20220;-47
2023/09/24 07:28:54;;;;;;;1999.90;999.90;;;;;;;22.88;100.00;96268.00;5064292;28;20177;-47
2023/09/24 07:31:22;;;;;;;1999.90;999.90;;;;;;;23.16;100.00;96289.13;5064266;28;20249;-48
2023/09/24 07:33:55;;;;;;;1999.90;999.90;;;;;;;23.43;100.00;96281.56;5064931;28;20174;-51
2023/09/24 07:36:22;;;;;;;1999.90;999.90;;;;;;;24.13;100.00;96277.59;5063816;28;20176;-47
2023/09/24 07:38:49;;;;;;;1999.90;999.90;;;;;;;24.26;100.00;96280.97;5064098;28;20204;-51
2023/09/24 07:41:15;;;;;;;1999.90;999.90;;;;;;;23.88;99.76;96284.28;5064508;28;20178;-49
2023/09/24 07:43:44;;;;;;;1999.90;999.90;;;;;;;23.91;99.45;96288.16;5063456;28;20171;-49
2023/09/24 07:46:14;;;;;;;1999.90;999.90;;;;;;;24.35;94.00;96289.31;5064029;28;20170;-50
2023/09/24 07:48:41;;;;;;;1999.90;999.90;;;;;;;23.94;99.39;96287.25;5064617;28;20244;-53
2023/09/24 07:51:07;;;;;;;1999.90;999.90;;;;;;;23.40;100.00;96287.28;5063931;28;20176;-51
2023/09/24 07:53:32;;;;;;;1999.90;999.90;;;;;;;23.32;100.00;96280.47;5063749;28;20170;-48
2023/09/24 07:56:06;;;;;;;1999.90;999.90;;;;;;;22.53;100.00;96286.94;5063802;28;20248;-46
2023/09/24 07:58:32;;;;;;;1999.90;999.90;;;;;;;24.16;96.50;96283.03;5063806;28;20197;-49
2023/09/24 08:01:04;;;;;;;1999.90;999.90;;;;;;;23.19;100.00;96290.97;5064350;28;20178;-49
2023/09/24 08:03:30;;;;;;;1999.90;999.90;;;;;;;23.01;100.00;96294.50;5063711;28;20166;-55
2023/09/24 08:05:56;;;;;;;1999.90;999.90;;;;;;;23.34;100.00;96291.94;5063700;28;20224;-51
2023/09/24 08:08:23;;;;;;;1999.90;999.90;;;;;;;23.36;100.00;96281.88;5064042;28;20173;-48
2023/09/24 08:10:49;;;;;;;1999.90;999.90;;;;;;;22.75;100.00;96278.50;5063678;28;20243;-48
2023/09/24 08:13:15;;;;;;;1999.90;999.90;;;;;;;21.50;100.00;96282.94;5064242;28;20193;-55
2023/09/24 08:15:40;;;;;;;1999.90;999.90;;;;;;;20.92;100.00;96282.63;5063620;28;20201;-47
2023/09/24 08:18:09;;;;;;;1999.90;999.90;;;;;;;19.63;100.00;96287.44;5064464;28;20188;-52
2023/09/24 08:20:36;;;;;;;1999.90;999.90;;;;;;;19.38;100.00;96292.94;5063356;28;20204;-49
2023/09/24 08:23:02;;;;;;;1999.90;999.90;;;;;;;19.01;100.00;96291.50;5064096;28;20212;-51
2023/09/24 08:25:27;;;;;;;1999.90;999.90;;;;;;;19.95;100.00;96292.81;5063508;28;20554;-48
2023/09/24 08:27:53;;;;;;;1999.90;999.90;;;;;;;19.88;100.00;96304.13;5064078;28;20165;-53
2023/09/24 08:30:19;;;;;;;1999.90;999.90;;;;;;;20.83;100.00;96279.69;5064056;28;20170;-53
2023/09/24 08:32:44;;;;;;;1999.90;999.90;;;;;;;20.43;100.00;96292.53;5063872;28;20196;-50
2023/09/24 08:35:10;;;;;;;1999.90;999.90;;;;;;;19.77;100.00;96303.66;5063536;28;20166;-59
2023/09/24 08:37:35;;;;;;;1999.90;999.90;;;;;;;19.35;100.00;96296.56;5064328;28;20170;-60
2023/09/24 08:40:01;;;;;;;1999.90;999.90;;;;;;;19.55;100.00;96294.41;5063883;28;20208;-59
2023/09/24 08:42:26;;;;;;;1999.90;999.90;;;;;;;18.70;100.00;96292.34;5063516;28;20197;-60
2023/09/24 08:45:12;;;;;;;1999.90;999.90;;;;;;;18.81;100.00;96301.94;5063417;28;20168;-60
2023/09/24 08:47:39;;;;;;;1999.90;999.90;;;;;;;18.52;100.00;96303.84;5063886;28;20249;-59
2023/09/24 08:50:05;;;;;;;1999.90;999.90;;;;;;;18.77;100.00;96298.47;5064059;28;20166;-59
2023/09/24 08:52:35;;;;;;;1999.90;999.90;;;;;;;18.82;100.00;96297.16;5063292;28;20173;-60
2023/09/24 08:55:02;;;;;;;1999.90;999.90;;;;;;;19.63;100.00;96297.75;5064558;28;20197;-60
2023/09/24 08:57:28;;;;;;;1999.90;999.90;;;;;;;19.82;100.00;96303.13;5067573;28;20198;-59
2023/09/24 08:59:53;;;;;;;1999.90;999.90;;;;;;;19.04;100.00;96295.38;5067569;28;20198;-59
2023/09/24 09:02:18;;;;;;;1999.90;999.90;;;;;;;18.68;100.00;96294.75;5067730;28;20161;-62
2023/09/24 09:04:48;;;;;;;1999.90;999.90;;;;;;;18.45;100.00;96303.22;5067121;28;20213;-62
2023/09/24 09:07:14;;;;;;;1999.90;999.90;;;;;;;18.69;100.00;96296.31;5066859;28;20185;-61
2023/09/24 09:09:40;;;;;;;1999.90;999.90;;;;;;;18.07;100.00;96299.34;5066974;28;20158;-62
2023/09/24 09:12:06;;;;;;;1999.90;999.90;;;;;;;19.37;100.00;96291.34;5067432;28;20185;-62
2023/09/24 09:14:34;;;;;;;1999.90;999.90;;;;;;;20.71;100.00;96283.28;5067199;28;20229;-62
2023/09/24 09:16:59;;;;;;;1999.90;999.90;;;;;;;20.38;100.00;96298.66;5066879;28;20166;-62
2023/09/24 09:19:27;;;;;;;1999.90;999.90;;;;;;;19.94;100.00;96294.06;5066670;28;20193;-62
2023/09/24 09:21:53;;;;;;;1999.90;999.90;;;;;;;19.15;100.00;96293.91;5067586;28;20248;-62
2023/09/24 09:24:25;;;;;;;1999.90;999.90;;;;;;;19.63;100.00;96287.44;5067161;28;20162;-62
2023/09/24 09:26:55;;;;;;;1999.90;999.90;;;;;;;20.47;100.00;96284.09;5066673;28;20220;-61
2023/09/24 09:29:26;;;;;;;1999.90;999.90;;;;;;;20.17;100.00;96285.44;5067060;28;20201;-62
2023/09/24 09:31:52;;;;;;;1999.90;999.90;;;;;;;20.20;100.00;96276.22;5066576;28;20174;-62
2023/09/24 09:34:18;;;;;;;1999.90;999.90;;;;;;;21.48;100.00;96280.63;5066520;28;20173;-62
2023/09/24 09:36:43;;;;;;;1999.90;999.90;;;;;;;22.05;100.00;96279.31;5067062;28;20166;-62
2023/09/24 09:39:09;;;;;;;1999.90;999.90;;;;;;;21.56;100.00;96276.34;5067121;28;20243;-62
2023/09/24 09:41:34;;;;;;;1999.90;999.90;;;;;;;19.87;100.00;96283.16;5066443;28;20169;-61
2023/09/24 09:44:07;;;;;;;1999.90;999.90;;;;;;;20.09;100.00;96281.31;5066429;28;20169;-63
2023/09/24 09:46:38;;;;;;;1999.90;999.90;;;;;;;19.81;100.00;96282.16;5066506;28;20165;-63
2023/09/24 09:49:09;;;;;;;1999.90;999.90;;;;;;;19.01;100.00;96285.19;5066740;28;20176;-63
2023/09/24 09:51:48;;;;;;;1999.90;999.90;;;;;;;18.75;100.00;96275.19;5066518;28;20162;-63
2023/09/24 09:54:15;;;;;;;1999.90;999.90;;;;;;;17.92;100.00;96276.00;5066679;28;20166;-62
2023/09/24 09:56:41;;;;;;;1999.90;999.90;;;;;;;18.52;100.00;96280.91;5066025;28;20162;-62
2023/09/24 09:59:08;;;;;;;1999.90;999.90;;;;;;;19.28;100.00;96277.38;5065907;28;20198;-62
2023/09/24 10:01:34;;;;;;;1999.90;999.90;;;;;;;19.57;100.00;96275.34;5065982;28;20166;-62
2023/09/24 10:04:01;;;;;;;1999.90;999.90;;;;;;;21.10;100.00;96271.66;5066184;28;20284;-62
2023/09/24 10:06:28;;;;;;;1999.90;999.90;;;;;;;21.44;100.00;96274.41;5065892;28;20169;-62
2023/09/24 10:08:53;;;;;;;1999.90;999.90;;;;;;;21.93;100.00;96263.47;5065878;28;20170;-63
2023/09/24 10:11:31;;;;;;;1999.90;999.90;;;;;;;21.95;100.00;96264.56;5066241;28;20170;-62
2023/09/24 10:13:57;;;;;;;1999.90;999.90;;;;;;;21.94;100.00;96274.16;5065895;28;20174;-63
2023/09/24 10:16:25;;;;;;;1999.90;999.90;;;;;;;22.26;100.00;96270.88;5065880;28;20190;-62
2023/09/24 10:19:03;;;;;;;1999.90;999.90;;;;;;;22.12;100.00;96263.13;5066112;28;20216;-63
2023/09/24 10:21:33;;;;;;;1999.90;999.90;;;;;;;21.24;100.00;96270.38;5066239;28;20245;-62
2023/09/24 10:24:13;;;;;;;1999.90;999.90;;;;;;;21.94;100.00;96273.38;5066084;28;20162;-62
2023/09/24 10:26:50;;;;;;;1999.90;999.90;;;;;;;21.79;100.00;96278.72;5065263;28;20170;-62
2023/09/24 10:29:16;;;;;;;1999.90;999.90;;;;;;;22.04;100.00;96270.16;5065461;28;20176;-62
2023/09/24 10:32:07;;;;;;;1999.90;999.90;;;;;;;22.69;99.34;96269.22;5065203;28;20169;-62
2023/09/24 10:34:51;;;;;;;1999.90;999.90;;;;;;;23.01;90.60;96271.44;5066067;28;20165;-62
2023/09/24 10:37:20;;;;;;;1999.90;999.90;;;;;;;22.60;94.17;96271.97;5065778;28;20230;-62
2023/09/24 10:39:58;;;;;;;1999.90;999.90;;;;;;;22.22;100.00;96261.91;5065204;28;20217;-62
2023/09/24 10:42:23;;;;;;;1999.90;999.90;;;;;;;22.63;100.00;96262.69;5064989;28;20180;-62
2023/09/24 10:45:14;;;;;;;1999.90;999.90;;;;;;;21.88;100.00;96256.50;5065216;28;20162;-63